createdAt,value
2023-03-22T00:00:31.622Z,98924.16
2023-03-22T00:03:05.802Z,98924.25
2023-03-22T00:05:40.259Z,98917.34
2023-03-22T00:08:13.699Z,98924.25
2023-03-22T00:10:49.159Z,98913.69
2023-03-22T00:13:22.293Z,98914.31
2023-03-22T00:15:57.759Z,98912.22
2023-03-22T00:18:31.001Z,98910.91
2023-03-22T00:21:04.481Z,98919.25
2023-03-22T00:23:37.680Z,98917.16
2023-03-22T00:26:12.691Z,98913.69
2023-03-22T00:28:45.665Z,98911.41
2023-03-22T00:31:20.666Z,98907.09
2023-03-22T00:33:53.574Z,98905.81
2023-03-22T00:36:26.914Z,98907.63
2023-03-22T00:38:59.827Z,98909.19
2023-03-22T00:41:34.334Z,98914.47
2023-03-22T00:44:07.086Z,98901.09
2023-03-22T00:46:39.986Z,98902.00
2023-03-22T00:49:12.857Z,98897.78
2023-03-22T00:51:46.296Z,98899.06
2023-03-22T00:54:19.436Z,98886.56
2023-03-22T00:56:53.648Z,98892.28
2023-03-22T00:59:28.607Z,98888.69
2023-03-22T01:02:04.210Z,98890.75
2023-03-22T01:04:37.304Z,98886.19
2023-03-22T01:07:10.569Z,98895.38
2023-03-22T01:09:43.486Z,98883.91
2023-03-22T01:12:21.259Z,98875.53
2023-03-22T01:14:54.193Z,98883.72
2023-03-22T01:17:27.098Z,98883.38
2023-03-22T01:20:00.226Z,98878.91
2023-03-22T01:22:33.085Z,98868.69
2023-03-22T01:25:06.674Z,98865.75
2023-03-22T01:27:41.004Z,98857.22
2023-03-22T01:30:14.799Z,98856.47
2023-03-22T01:32:47.679Z,98857.31
2023-03-22T01:35:22.373Z,98865.66
2023-03-22T01:37:55.617Z,98862.63
2023-03-22T01:40:28.889Z,98861.91
2023-03-22T01:43:03.978Z,98864.94
2023-03-22T01:45:40.394Z,98855.81
2023-03-22T01:48:25.344Z,98851.16
2023-03-22T01:51:07.281Z,98851.03
2023-03-22T01:53:50.852Z,98843.81
2023-03-22T01:56:28.910Z,98839.59
2023-03-22T01:59:04.837Z,98835.31
2023-03-22T02:01:54.609Z,98837.22
2023-03-22T02:04:34.318Z,98829.28
2023-03-22T02:07:15.813Z,98833.22
2023-03-22T02:09:51.702Z,98830.09
2023-03-22T02:12:38.665Z,98825.56
2023-03-22T02:15:30.951Z,98837.88
2023-03-22T02:18:32.593Z,98834.91
2023-03-22T02:22:01.879Z,98834.19
2023-03-22T02:25:06.884Z,98829.03
2023-03-22T02:28:02.523Z,98827.50
2023-03-22T02:30:56.970Z,98825.28
2023-03-22T02:34:17.622Z,98823.69
2023-03-22T02:37:04.136Z,98821.47
2023-03-22T02:39:46.242Z,98814.75
2023-03-22T02:42:39.089Z,98809.84
2023-03-22T02:45:17.092Z,98820.81
2023-03-22T02:47:56.405Z,98811.34
2023-03-22T02:50:34.154Z,98812.69
2023-03-22T02:53:15.621Z,98811.31
2023-03-22T02:55:55.241Z,98805.97
2023-03-22T02:58:35.550Z,98808.63
2023-03-22T03:01:13.260Z,98809.16
2023-03-22T03:03:49.469Z,98808.81
2023-03-22T03:06:25.754Z,98807.19
2023-03-22T03:09:02.649Z,98806.69
2023-03-22T03:11:36.937Z,98809.56
2023-03-22T03:14:21.540Z,98803.16
2023-03-22T03:17:06.268Z,98812.50
2023-03-22T03:19:46.351Z,98809.47
2023-03-22T03:22:35.864Z,98807.47
2023-03-22T03:25:18.294Z,98811.13
2023-03-22T03:28:01.812Z,98804.88
2023-03-22T03:30:41.028Z,98808.09
2023-03-22T03:33:19.398Z,98810.34
2023-03-22T03:35:56.387Z,98809.19
2023-03-22T03:38:33.180Z,98811.53
2023-03-22T03:41:10.285Z,98814.72
2023-03-22T03:43:47.214Z,98813.22
2023-03-22T03:46:20.536Z,98813.34
2023-03-22T03:48:54.460Z,98826.72
2023-03-22T03:51:28.728Z,98808.78
2023-03-22T03:54:01.562Z,98821.25
2023-03-22T03:56:34.419Z,98822.03
2023-03-22T03:59:09.191Z,98806.72
2023-03-22T04:01:42.089Z,98814.25
2023-03-22T04:04:26.924Z,98820.81
2023-03-22T04:07:07.357Z,98815.25
2023-03-22T04:09:43.749Z,98820.34
2023-03-22T04:12:35.601Z,98819.78
2023-03-22T04:15:30.234Z,98825.09
2023-03-22T04:18:07.076Z,98830.75
2023-03-22T04:20:41.987Z,98820.03
2023-03-22T04:23:14.912Z,98823.53
2023-03-22T04:25:50.301Z,98821.09
2023-03-22T04:28:30.053Z,98824.97
2023-03-22T04:31:04.606Z,98820.19
2023-03-22T04:33:55.233Z,98815.44
2023-03-22T04:36:40.823Z,98820.03
2023-03-22T04:39:23.069Z,98806.03
2023-03-22T04:42:05.665Z,98809.72
2023-03-22T04:44:39.840Z,98799.97
2023-03-22T04:47:15.046Z,98794.13
2023-03-22T04:49:48.256Z,98786.31
2023-03-22T04:52:23.249Z,98793.09
2023-03-22T04:54:59.153Z,98792.88
2023-03-22T04:57:32.610Z,98789.88
2023-03-22T05:00:08.787Z,98787.63
2023-03-22T05:02:44.382Z,98786.06
2023-03-22T05:05:26.873Z,98787.00
2023-03-22T05:08:00.753Z,98780.38
2023-03-22T05:10:33.748Z,98770.94
2023-03-22T05:13:06.741Z,98767.53
2023-03-22T05:15:45.976Z,98762.72
2023-03-22T05:18:25.081Z,98762.84
2023-03-22T05:20:58.742Z,98756.63
2023-03-22T05:23:31.600Z,98752.50
2023-03-22T05:26:05.471Z,98753.47
2023-03-22T05:28:39.500Z,98751.47
2023-03-22T05:31:21.774Z,98749.41
2023-03-22T05:34:08.201Z,98747.69
2023-03-22T05:36:42.612Z,98746.91
2023-03-22T05:39:35.770Z,98747.28
2023-03-22T05:42:08.824Z,98759.13
2023-03-22T05:44:42.532Z,98760.78
2023-03-22T05:47:18.735Z,98769.09
2023-03-22T05:50:01.796Z,98770.91
2023-03-22T05:52:36.741Z,98766.53
2023-03-22T05:55:22.367Z,98766.44
2023-03-22T05:57:59.746Z,98776.69
2023-03-22T06:00:33.548Z,98771.06
2023-03-22T06:03:27.709Z,98775.47
2023-03-22T06:06:17.312Z,98786.00
2023-03-22T06:09:17.726Z,98781.94
2023-03-22T06:11:55.233Z,98782.69
2023-03-22T06:14:29.319Z,98778.72
2023-03-22T06:17:14.173Z,98783.16
2023-03-22T06:19:47.556Z,98778.59
2023-03-22T06:22:23.317Z,98786.09
2023-03-22T06:24:56.537Z,98785.13
2023-03-22T06:27:39.258Z,98793.56
2023-03-22T06:30:13.052Z,98789.50
2023-03-22T06:33:05.243Z,98790.28
2023-03-22T06:35:41.641Z,98787.69
2023-03-22T06:38:19.767Z,98785.63
2023-03-22T06:40:53.192Z,98786.34
2023-03-22T06:43:26.454Z,98778.72
2023-03-22T06:46:12.000Z,98773.09
2023-03-22T06:48:52.129Z,98788.53
2023-03-22T06:51:25.038Z,98783.56
2023-03-22T06:53:59.481Z,98782.50
2023-03-22T06:56:32.503Z,98792.00
2023-03-22T06:59:07.226Z,98794.75
2023-03-22T07:01:40.314Z,98801.41
2023-03-22T07:04:13.346Z,98794.09
2023-03-22T07:06:46.810Z,98804.72
2023-03-22T07:09:24.059Z,98807.00
2023-03-22T07:11:59.759Z,98809.78
2023-03-22T07:14:32.735Z,98806.72
2023-03-22T07:17:14.427Z,98813.38
2023-03-22T07:19:47.412Z,98816.06
2023-03-22T07:22:22.269Z,98820.88
2023-03-22T07:25:01.565Z,98813.44
2023-03-22T07:27:37.453Z,98821.56
2023-03-22T07:30:11.657Z,98823.56
2023-03-22T07:32:49.442Z,98824.44
2023-03-22T07:35:22.254Z,98819.50
2023-03-22T07:37:56.110Z,98826.41
2023-03-22T07:40:36.286Z,98811.28
2023-03-22T07:43:12.300Z,98819.78
2023-03-22T07:46:08.061Z,98816.44
2023-03-22T07:48:59.962Z,98813.94
2023-03-22T07:51:52.807Z,98803.16
2023-03-22T07:54:33.333Z,98808.91
2023-03-22T07:57:09.603Z,98803.41
2023-03-22T07:59:48.380Z,98808.13
2023-03-22T08:02:21.734Z,98812.16
2023-03-22T08:04:59.417Z,98815.59
2023-03-22T08:07:42.449Z,98810.94
2023-03-22T08:10:17.377Z,98815.78
2023-03-22T08:12:51.741Z,98824.94
2023-03-22T08:15:29.533Z,98816.31
2023-03-22T08:18:02.481Z,98825.38
2023-03-22T08:20:42.441Z,98814.63
2023-03-22T08:23:28.798Z,98827.97
2023-03-22T08:26:26.200Z,98826.59
2023-03-22T08:29:02.724Z,98824.75
2023-03-22T08:31:38.852Z,98829.72
2023-03-22T08:34:11.771Z,98821.06
2023-03-22T08:36:45.034Z,98828.81
2023-03-22T08:39:18.178Z,98827.47
2023-03-22T08:41:58.796Z,98835.34
2023-03-22T08:44:34.603Z,98824.09
2023-03-22T08:47:09.249Z,98827.16
2023-03-22T08:49:43.569Z,98823.97
2023-03-22T08:52:29.108Z,98834.06
2023-03-22T08:55:24.860Z,98821.75
2023-03-22T08:58:19.623Z,98825.63
2023-03-22T09:01:13.892Z,98829.72
2023-03-22T09:04:10.720Z,98815.50
2023-03-22T09:06:45.690Z,98805.78
2023-03-22T09:09:19.282Z,98812.22
2023-03-22T09:11:56.495Z,98815.53
2023-03-22T09:14:29.662Z,98817.09
2023-03-22T09:17:06.251Z,98798.78
2023-03-22T09:19:39.266Z,98803.41
2023-03-22T09:22:12.865Z,98804.38
2023-03-22T09:24:51.863Z,98805.03
2023-03-22T09:27:25.023Z,98801.69
2023-03-22T09:29:58.031Z,98795.22
2023-03-22T09:32:32.209Z,98781.97
2023-03-22T09:35:08.900Z,98791.88
2023-03-22T09:37:53.513Z,98788.28
2023-03-22T09:40:29.799Z,98782.19
2023-03-22T09:43:06.257Z,98790.97
2023-03-22T09:45:44.304Z,98772.34
2023-03-22T09:48:22.343Z,98774.56
2023-03-22T09:50:57.034Z,98779.16
2023-03-22T09:53:32.925Z,98782.00
2023-03-22T09:56:12.792Z,98784.22
2023-03-22T09:58:51.592Z,98781.31
2023-03-22T10:01:35.450Z,98776.28
2023-03-22T10:04:27.327Z,98765.78
2023-03-22T10:07:12.209Z,98768.59
2023-03-22T10:09:54.847Z,98761.69
2023-03-22T10:12:31.435Z,98753.88
2023-03-22T10:15:07.868Z,98755.34
2023-03-22T10:17:45.746Z,98760.47
2023-03-22T10:20:42.368Z,98756.84
2023-03-22T10:23:19.417Z,98750.66
2023-03-22T10:25:53.907Z,98758.66
2023-03-22T10:28:32.902Z,98760.84
2023-03-22T10:31:06.869Z,98762.06
2023-03-22T10:33:50.227Z,98755.28
2023-03-22T10:36:28.655Z,98761.34
2023-03-22T10:39:05.543Z,98746.28
2023-03-22T10:41:39.113Z,98753.69
2023-03-22T10:44:18.278Z,98755.06
2023-03-22T10:46:53.351Z,98758.88
2023-03-22T10:49:31.728Z,98745.28
2023-03-22T10:52:18.401Z,98736.34
2023-03-22T10:54:51.631Z,98754.97
2023-03-22T10:57:25.807Z,98741.44
2023-03-22T10:59:58.964Z,98740.19
2023-03-22T11:02:33.793Z,98740.38
2023-03-22T11:05:08.138Z,98737.63
2023-03-22T11:07:45.485Z,98742.16
2023-03-22T11:10:31.423Z,98739.72
2023-03-22T11:13:21.497Z,98735.94
2023-03-22T11:15:59.945Z,98746.34
2023-03-22T11:18:34.931Z,98736.47
2023-03-22T11:21:11.153Z,98745.84
2023-03-22T11:23:55.422Z,98730.09
2023-03-22T11:26:32.136Z,98719.19
2023-03-22T11:29:14.284Z,98728.16
2023-03-22T11:31:57.356Z,98725.38
2023-03-22T11:34:32.105Z,98717.22
2023-03-22T11:37:09.548Z,98726.16
2023-03-22T11:39:48.507Z,98716.59
2023-03-22T11:42:22.387Z,98718.59
2023-03-22T11:44:57.134Z,98711.66
2023-03-22T11:47:37.880Z,98705.22
2023-03-22T11:50:26.332Z,98689.66
2023-03-22T11:53:02.800Z,98704.94
2023-03-22T11:55:37.931Z,98689.19
2023-03-22T11:58:26.185Z,98691.44
2023-03-22T12:01:03.195Z,98674.22
2023-03-22T12:03:39.832Z,98680.78
2023-03-22T12:06:22.134Z,98673.84
2023-03-22T12:08:59.833Z,98675.53
2023-03-22T12:11:38.917Z,98684.50
2023-03-22T12:14:20.418Z,98675.34
2023-03-22T12:16:59.105Z,98673.59
2023-03-22T12:19:45.099Z,98670.97
2023-03-22T12:22:22.017Z,98676.47
2023-03-22T12:24:55.194Z,98674.22
2023-03-22T12:27:34.301Z,98670.94
2023-03-22T12:30:13.855Z,98664.69
2023-03-22T12:32:51.697Z,98651.97
2023-03-22T12:35:28.363Z,98647.56
2023-03-22T12:38:08.196Z,98653.66
2023-03-22T12:40:43.175Z,98647.31
2023-03-22T12:43:25.855Z,98650.25
2023-03-22T12:46:02.274Z,98645.34
2023-03-22T12:48:39.845Z,98637.69
2023-03-22T12:51:15.547Z,98635.94
2023-03-22T12:53:52.163Z,98632.19
2023-03-22T12:56:29.972Z,98634.03
2023-03-22T12:59:07.665Z,98628.81
2023-03-22T13:01:47.646Z,98623.03
2023-03-22T13:04:51.305Z,98617.75
2023-03-22T13:07:54.599Z,98608.25
2023-03-22T13:11:00.472Z,98608.84
2023-03-22T13:13:42.671Z,98613.22
2023-03-22T13:16:22.604Z,98597.94
2023-03-22T13:19:03.836Z,98598.03
2023-03-22T13:21:39.833Z,98599.91
2023-03-22T13:24:24.232Z,98602.22
2023-03-22T13:27:00.256Z,98595.31
2023-03-22T13:29:37.733Z,98597.00
2023-03-22T13:32:30.655Z,98598.31
2023-03-22T13:35:03.922Z,98592.72
2023-03-22T13:37:51.320Z,98594.06
2023-03-22T13:40:31.230Z,98591.25
2023-03-22T13:43:23.607Z,98591.88
2023-03-22T13:46:08.762Z,98589.91
2023-03-22T13:48:55.384Z,98592.03
2023-03-22T13:51:32.055Z,98574.50
2023-03-22T13:54:09.252Z,98574.84
2023-03-22T13:56:56.528Z,98571.47
2023-03-22T13:59:33.906Z,98568.00
2023-03-22T14:02:18.477Z,98561.53
2023-03-22T14:04:56.131Z,98565.44
2023-03-22T14:07:34.575Z,98558.88
2023-03-22T14:10:15.455Z,98563.47
2023-03-22T14:12:52.624Z,98557.03
2023-03-22T14:15:28.154Z,98563.00
2023-03-22T14:18:04.668Z,98556.78
2023-03-22T14:20:41.063Z,98555.00
